createdAt,value
2019-01-18T00:00:24.492Z,6.57
2019-01-18T00:03:13.306Z,6.20
2019-01-18T00:06:02.222Z,5.33
2019-01-18T00:08:51.026Z,5.57
2019-01-18T00:11:39.882Z,5.73
2019-01-18T00:14:28.680Z,6.03
2019-01-18T00:17:17.535Z,5.83
2019-01-18T00:20:25.656Z,4.90
2019-01-18T00:23:14.617Z,6.43
2019-01-18T00:26:03.484Z,6.60
2019-01-18T00:28:52.408Z,6.30
2019-01-18T00:31:41.245Z,6.13
2019-01-18T00:34:30.058Z,6.97
2019-01-18T00:37:18.984Z,5.53
2019-01-18T00:40:27.119Z,8.60
2019-01-18T00:43:16.018Z,5.73
2019-01-18T00:46:05.261Z,5.73
2019-01-18T00:48:54.104Z,5.40
2019-01-18T00:51:42.978Z,6.60
2019-01-18T00:54:31.829Z,5.40
2019-01-18T00:57:20.663Z,7.53
2019-01-18T01:00:29.340Z,5.67
2019-01-18T01:03:18.216Z,6.27
2019-01-18T01:06:07.047Z,6.17
2019-01-18T01:08:55.906Z,9.13
2019-01-18T01:11:44.809Z,8.63
2019-01-18T01:14:33.638Z,6.63
2019-01-18T01:17:22.523Z,7.50
2019-01-18T01:20:32.334Z,5.70
2019-01-18T01:23:21.191Z,5.23
2019-01-18T01:26:10.093Z,7.33
2019-01-18T01:28:51.538Z,7.43
2019-01-18T01:31:33.016Z,6.90
2019-01-18T01:34:21.817Z,6.17
2019-01-18T01:37:10.721Z,6.83
2019-01-18T01:39:59.228Z,6.57
2019-01-18T01:42:48.218Z,8.40
2019-01-18T01:45:37.187Z,5.60
2019-01-18T01:48:18.866Z,6.17
2019-01-18T01:51:07.719Z,5.17
2019-01-18T01:53:56.631Z,6.07
2019-01-18T01:56:45.447Z,7.97
2019-01-18T01:59:34.260Z,6.93
2019-01-18T02:02:23.113Z,6.77
2019-01-18T02:05:12.099Z,6.93
2019-01-18T02:08:01.037Z,8.30
2019-01-18T02:10:49.879Z,7.60
2019-01-18T02:13:38.792Z,6.13
2019-01-18T02:16:27.646Z,8.23
2019-01-18T02:19:16.484Z,8.30
2019-01-18T02:22:05.354Z,7.63
2019-01-18T02:24:54.185Z,7.37
2019-01-18T02:30:32.040Z,7.30
2019-01-18T02:33:20.854Z,9.03
2019-01-18T02:36:09.771Z,7.40
2019-01-18T02:38:58.567Z,8.97
2019-01-18T02:41:47.474Z,7.50
2019-01-18T02:44:36.322Z,10.27
2019-01-18T02:47:25.155Z,8.60
2019-01-18T02:50:14.218Z,8.57
2019-01-18T02:53:03.053Z,7.57
2019-01-18T02:55:51.972Z,8.10
2019-01-18T02:58:40.837Z,9.73
2019-01-18T03:01:29.710Z,8.73
2019-01-18T03:07:14.789Z,10.50
2019-01-18T03:10:24.525Z,10.80
2019-01-18T03:13:13.364Z,12.87
2019-01-18T03:15:54.601Z,8.57
2019-01-18T03:18:43.435Z,9.83
2019-01-18T03:21:32.279Z,9.17
2019-01-18T03:24:21.096Z,11.40
2019-01-18T03:27:10.020Z,10.27
2019-01-18T03:29:58.897Z,12.30
2019-01-18T03:32:47.883Z,11.57
2019-01-18T03:35:36.767Z,11.83
2019-01-18T03:38:25.586Z,12.07
2019-01-18T03:41:14.391Z,10.17
2019-01-18T03:43:43.893Z,8.87
2019-01-18T03:46:32.839Z,10.63
2019-01-18T03:49:21.832Z,12.17
2019-01-18T03:52:10.656Z,14.80
2019-01-18T03:55:00.406Z,12.20
2019-01-18T03:57:41.911Z,15.20
2019-01-18T04:00:30.862Z,12.87
2019-01-18T04:03:19.743Z,12.83
2019-01-18T04:06:01.137Z,12.67
2019-01-18T04:08:49.964Z,12.67
2019-01-18T04:11:38.822Z,11.83
2019-01-18T04:14:27.671Z,10.87
2019-01-18T04:17:16.520Z,11.03
2019-01-18T04:20:26.260Z,10.13
2019-01-18T04:23:15.175Z,10.40
2019-01-18T04:26:04.062Z,10.27
2019-01-18T04:28:52.902Z,13.80
2019-01-18T04:31:41.845Z,11.93
2019-01-18T04:34:30.656Z,12.17
2019-01-18T04:37:19.507Z,13.60
2019-01-18T04:40:28.106Z,12.67
2019-01-18T04:43:17.019Z,14.60
2019-01-18T04:46:05.924Z,12.87
2019-01-18T04:48:54.770Z,11.90
2019-01-18T04:51:43.636Z,13.03
2019-01-18T04:54:32.479Z,12.40
2019-01-18T04:57:21.330Z,12.00
2019-01-18T05:00:30.264Z,11.63
2019-01-18T05:02:59.897Z,13.47
2019-01-18T05:05:41.267Z,16.50
2019-01-18T05:08:30.099Z,14.87
2019-01-18T05:11:18.919Z,12.33
2019-01-18T05:14:07.762Z,13.20
2019-01-18T05:16:56.664Z,14.97
2019-01-18T05:19:45.511Z,13.07
2019-01-18T05:22:34.347Z,13.43
2019-01-18T05:25:23.334Z,11.77
2019-01-18T05:28:12.143Z,10.93
2019-01-18T05:31:00.978Z,13.43
2019-01-18T05:33:49.828Z,13.03
2019-01-18T05:36:38.707Z,13.27
2019-01-18T05:39:27.545Z,14.83
2019-01-18T05:42:16.396Z,15.10
2019-01-18T05:45:26.155Z,13.63
2019-01-18T05:48:15.080Z,14.47
2019-01-18T05:51:03.961Z,14.17
2019-01-18T05:53:52.839Z,13.50
2019-01-18T05:56:41.820Z,13.03
2019-01-18T05:59:30.700Z,12.47
2019-01-18T06:02:19.529Z,11.93
2019-01-18T06:05:01.548Z,12.37
2019-01-18T06:07:50.452Z,12.13
2019-01-18T06:10:39.407Z,11.83
2019-01-18T06:13:28.228Z,14.83
2019-01-18T06:16:17.044Z,14.37
2019-01-18T06:19:05.947Z,10.23
2019-01-18T06:21:54.421Z,12.57
2019-01-18T06:24:44.045Z,14.53
2019-01-18T06:27:32.840Z,14.20
2019-01-18T06:30:22.567Z,12.00
2019-01-18T06:33:11.360Z,12.67
2019-01-18T06:36:01.021Z,13.13
2019-01-18T06:38:30.466Z,14.37
2019-01-18T06:44:14.825Z,12.50
2019-01-18T06:47:03.697Z,12.57
2019-01-18T06:49:52.561Z,12.07
2019-01-18T06:52:41.516Z,14.17
2019-01-18T06:55:31.239Z,12.90
2019-01-18T06:58:00.748Z,14.07
2019-01-18T07:15:59.937Z,13.97
2019-01-18T08:25:39.260Z,24.53
2019-01-18T08:28:08.965Z,21.13
2019-01-18T08:36:35.915Z,18.87
2019-01-18T08:42:01.048Z,18.87
2019-01-18T08:44:50.047Z,20.13
2019-01-18T08:47:39.063Z,18.97
2019-01-18T08:50:27.951Z,20.10
2019-01-18T08:53:16.855Z,17.60
2019-01-18T08:56:05.401Z,17.47
2019-01-18T08:58:34.960Z,19.50
2019-01-18T09:01:23.875Z,22.47
2019-01-18T09:04:12.800Z,19.40
2019-01-18T09:06:42.398Z,22.30
2019-01-18T09:09:31.229Z,20.60
2019-01-18T09:12:00.791Z,19.20
2019-01-18T09:14:49.689Z,19.17
2019-01-18T09:17:38.988Z,19.70
2019-01-18T09:23:58.015Z,15.00
2019-01-18T09:26:46.810Z,19.87
2019-01-18T09:29:35.732Z,18.53
2019-01-18T09:32:24.666Z,18.10
2019-01-18T09:35:35.258Z,20.73
2019-01-18T09:38:24.213Z,20.90
2019-01-18T09:41:13.048Z,22.63
2019-01-18T09:43:42.537Z,21.63
2019-01-18T09:46:31.396Z,18.33
2019-01-18T09:49:20.224Z,18.90
2019-01-18T09:52:09.023Z,19.87
2019-01-18T09:54:38.730Z,20.80
2019-01-18T09:57:22.440Z,21.47
2019-01-18T10:00:32.230Z,20.60
2019-01-18T10:03:14.153Z,17.23
2019-01-18T10:06:02.954Z,22.90
2019-01-18T10:08:51.811Z,19.93
2019-01-18T10:11:21.316Z,20.73
2019-01-18T10:13:50.852Z,19.60
2019-01-18T10:16:39.706Z,18.90
2019-01-18T10:19:28.556Z,22.20
2019-01-18T10:22:17.391Z,19.57
2019-01-18T10:24:46.898Z,21.87
2019-01-18T10:27:35.737Z,23.27
2019-01-18T10:30:44.782Z,24.13
2019-01-18T10:33:33.589Z,25.00
2019-01-18T10:36:22.449Z,24.30
2019-01-18T10:39:11.335Z,21.13
2019-01-18T10:41:41.041Z,26.23
2019-01-18T10:44:29.943Z,25.03
2019-01-18T10:47:18.872Z,28.33
2019-01-18T10:50:28.599Z,22.47
2019-01-18T10:53:17.429Z,18.67
2019-01-18T10:56:06.380Z,22.10
2019-01-18T10:58:55.241Z,21.47
2019-01-18T11:01:36.602Z,23.87
2019-01-18T11:04:25.458Z,22.23
2019-01-18T11:07:14.452Z,21.50
2019-01-18T11:10:24.000Z,22.27
2019-01-18T11:13:12.908Z,26.90
2019-01-18T11:16:01.807Z,24.70
2019-01-18T11:18:50.780Z,23.10
2019-01-18T11:21:20.271Z,19.53
2019-01-18T11:24:09.144Z,22.13
2019-01-18T11:26:58.052Z,22.60
2019-01-18T11:29:46.980Z,22.80
2019-01-18T11:32:35.809Z,24.30
2019-01-18T11:35:24.699Z,22.37
2019-01-18T11:38:01.347Z,25.53
2019-01-18T11:40:50.274Z,26.27
2019-01-18T11:43:19.776Z,25.33
2019-01-18T11:46:08.593Z,24.03
2019-01-18T11:48:57.516Z,25.63
2019-01-18T11:51:46.353Z,25.90
2019-01-18T11:54:35.217Z,29.53
2019-01-18T11:57:24.101Z,23.07
2019-01-18T11:59:53.640Z,24.50
2019-01-18T12:02:35.271Z,26.07
2019-01-18T12:05:25.752Z,23.00
2019-01-18T12:08:14.645Z,22.50
2019-01-18T12:11:03.487Z,23.50
2019-01-18T12:13:45.400Z,23.93
2019-01-18T12:16:34.206Z,25.53
2019-01-18T12:19:23.054Z,23.60
2019-01-18T12:21:52.688Z,22.57
2019-01-18T12:24:41.600Z,20.87
2019-01-18T12:27:30.506Z,19.27
2019-01-18T12:30:38.628Z,17.53
2019-01-18T12:33:27.488Z,18.60
2019-01-18T12:36:16.406Z,17.53
2019-01-18T12:39:26.169Z,17.97
2019-01-18T12:42:15.183Z,15.93
2019-01-18T12:45:25.427Z,16.33
2019-01-18T12:48:14.345Z,17.47
2019-01-18T12:51:03.511Z,17.50
2019-01-18T12:53:52.435Z,16.67
2019-01-18T12:56:41.259Z,17.13
2019-01-18T12:59:30.111Z,14.27
2019-01-18T13:02:18.999Z,19.43
2019-01-18T13:05:28.790Z,15.23
2019-01-18T13:08:08.684Z,16.40
2019-01-18T13:10:57.529Z,16.70
2019-01-18T13:13:27.013Z,13.57
2019-01-18T13:16:36.767Z,19.40
2019-01-18T13:19:25.742Z,16.57
2019-01-18T13:22:14.614Z,16.03
2019-01-18T13:25:24.158Z,17.33
2019-01-18T13:28:13.049Z,19.03
2019-01-18T13:31:01.881Z,16.97
2019-01-18T13:33:50.869Z,17.13
2019-01-18T13:36:39.789Z,16.77
2019-01-18T13:39:28.646Z,14.30
2019-01-18T13:42:17.459Z,14.93
2019-01-18T13:45:27.303Z,14.80
2019-01-18T13:48:16.199Z,11.90
2019-01-18T13:51:05.093Z,15.40
2019-01-18T13:53:54.039Z,16.10
2019-01-18T13:56:42.868Z,15.60
2019-01-18T13:59:31.697Z,15.10
2019-01-18T14:02:20.607Z,17.53
2019-01-18T14:05:02.156Z,14.73
2019-01-18T14:07:53.419Z,15.80
2019-01-18T14:10:41.760Z,12.67
2019-01-18T14:13:30.633Z,15.47
2019-01-18T14:16:00.228Z,13.93
2019-01-18T14:18:49.058Z,15.33
2019-01-18T14:21:37.877Z,16.93
2019-01-18T14:24:26.803Z,13.80
2019-01-18T14:27:15.743Z,16.60
2019-01-18T14:30:25.537Z,18.57
2019-01-18T14:32:55.927Z,16.23
2019-01-18T14:35:45.860Z,18.03
2019-01-18T14:38:34.756Z,14.33
2019-01-18T14:41:23.627Z,15.33
2019-01-18T14:44:12.500Z,16.40
2019-01-18T14:47:01.435Z,14.60
2019-01-18T14:49:50.319Z,15.80
2019-01-18T14:52:19.990Z,13.13
2019-01-18T14:55:08.969Z,13.93
2019-01-18T14:57:57.917Z,14.23
2019-01-18T15:00:46.852Z,15.80
2019-01-18T15:03:35.865Z,13.47
2019-01-18T15:06:17.816Z,11.60
2019-01-18T15:08:47.394Z,13.83
2019-01-18T15:11:36.242Z,15.90
2019-01-18T15:14:25.189Z,15.60
2019-01-18T15:17:13.992Z,12.93
2019-01-18T15:20:03.024Z,12.40
2019-01-18T15:22:51.572Z,13.63
2019-01-18T15:25:40.087Z,14.87
2019-01-18T15:28:29.017Z,17.13
2019-01-18T15:31:17.983Z,15.10
2019-01-18T15:34:06.964Z,13.63
2019-01-18T15:36:56.448Z,12.87
2019-01-18T15:39:45.403Z,14.80
2019-01-18T15:42:34.871Z,16.50
2019-01-18T15:45:16.698Z,17.40
2019-01-18T15:48:05.664Z,25.83
2019-01-18T15:50:54.655Z,15.37
2019-01-18T16:37:41.349Z,11.43
